sensor_id;sensor_type;location;lat;lon;timestamp;P1;durP1;ratioP1;P2;durP2;ratioP2
6438;SDS011;3252;52.540;13.290;2023-11-21T00:01:23;1.33;;;0.90;;
6438;SDS011;3252;52.540;13.290;2023-11-21T00:03:26;1.17;;;0.80;;
6438;SDS011;3252;52.540;13.290;2023-11-21T00:05:28;1.67;;;1.00;;
6438;SDS011;3252;52.540;13.290;2023-11-21T00:07:32;1.38;;;0.68;;
6438;SDS011;3252;52.540;13.290;2023-11-21T00:09:34;1.25;;;0.80;;
6438;SDS011;3252;52.540;13.290;2023-11-21T00:11:37;1.02;;;0.70;;
6438;SDS011;3252;52.540;13.290;2023-11-21T00:13:40;1.25;;;0.57;;
6438;SDS011;3252;52.540;13.290;2023-11-21T00:15:42;1.08;;;0.85;;
6438;SDS011;3252;52.540;13.290;2023-11-21T00:17:45;1.60;;;0.95;;
6438;SDS011;3252;52.540;13.290;2023-11-21T00:19:47;1.17;;;0.68;;
6438;SDS011;3252;52.540;13.290;2023-11-21T00:21:49;1.23;;;0.95;;
6438;SDS011;3252;52.540;13.290;2023-11-21T00:23:53;1.05;;;0.80;;
6438;SDS011;3252;52.540;13.290;2023-11-21T00:25:56;2.42;;;1.00;;
6438;SDS011;3252;52.540;13.290;2023-11-21T00:27:58;1.60;;;0.85;;
6438;SDS011;3252;52.540;13.290;2023-11-21T00:30:01;0.90;;;0.63;;
6438;SDS011;3252;52.540;13.290;2023-11-21T00:32:06;1.33;;;0.73;;
6438;SDS011;3252;52.540;13.290;2023-11-21T00:34:09;1.05;;;0.65;;
6438;SDS011;3252;52.540;13.290;2023-11-21T00:36:11;0.82;;;0.63;;
6438;SDS011;3252;52.540;13.290;2023-11-21T00:38:14;2.17;;;0.90;;
6438;SDS011;3252;52.540;13.290;2023-11-21T00:40:21;1.55;;;0.93;;
6438;SDS011;3252;52.540;13.290;2023-11-21T00:42:23;1.52;;;0.85;;
6438;SDS011;3252;52.540;13.290;2023-11-21T00:44:25;1.52;;;0.70;;
6438;SDS011;3252;52.540;13.290;2023-11-21T00:46:28;1.27;;;0.82;;
6438;SDS011;3252;52.540;13.290;2023-11-21T00:48:29;1.13;;;0.80;;
6438;SDS011;3252;52.540;13.290;2023-11-21T00:50:31;0.68;;;0.60;;
6438;SDS011;3252;52.540;13.290;2023-11-21T00:52:34;1.80;;;0.70;;
6438;SDS011;3252;52.540;13.290;2023-11-21T00:54:36;1.40;;;0.90;;
6438;SDS011;3252;52.540;13.290;2023-11-21T00:56:40;0.73;;;0.70;;
6438;SDS011;3252;52.540;13.290;2023-11-21T00:58:42;2.15;;;0.90;;
6438;SDS011;3252;52.540;13.290;2023-11-21T01:00:49;1.58;;;0.80;;
6438;SDS011;3252;52.540;13.290;2023-11-21T01:02:52;0.88;;;0.63;;
6438;SDS011;3252;52.540;13.290;2023-11-21T01:04:54;1.40;;;0.88;;
6438;SDS011;3252;52.540;13.290;2023-11-21T01:06:57;0.90;;;0.60;;
6438;SDS011;3252;52.540;13.290;2023-11-21T01:09:00;0.90;;;0.77;;
6438;SDS011;3252;52.540;13.290;2023-11-21T01:11:04;1.02;;;0.60;;
6438;SDS011;3252;52.540;13.290;2023-11-21T01:13:09;1.20;;;0.77;;
6438;SDS011;3252;52.540;13.290;2023-11-21T01:15:12;0.98;;;0.70;;
6438;SDS011;3252;52.540;13.290;2023-11-21T01:17:15;1.13;;;0.80;;
6438;SDS011;3252;52.540;13.290;2023-11-21T01:19:18;1.60;;;0.70;;
6438;SDS011;3252;52.540;13.290;2023-11-21T01:21:21;1.05;;;0.60;;
6438;SDS011;3252;52.540;13.290;2023-11-21T01:23:23;0.50;;;0.50;;
6438;SDS011;3252;52.540;13.290;2023-11-21T01:25:25;0.88;;;0.80;;
6438;SDS011;3252;52.540;13.290;2023-11-21T01:27:28;1.15;;;0.73;;
6438;SDS011;3252;52.540;13.290;2023-11-21T01:29:31;0.73;;;0.50;;
6438;SDS011;3252;52.540;13.290;2023-11-21T01:31:34;0.85;;;0.70;;
6438;SDS011;3252;52.540;13.290;2023-11-21T01:33:37;2.15;;;0.80;;
6438;SDS011;3252;52.540;13.290;2023-11-21T01:35:39;1.55;;;0.70;;
6438;SDS011;3252;52.540;13.290;2023-11-21T01:37:42;0.95;;;0.70;;
6438;SDS011;3252;52.540;13.290;2023-11-21T01:39:44;0.65;;;0.60;;
6438;SDS011;3252;52.540;13.290;2023-11-21T01:41:47;1.05;;;0.70;;
6438;SDS011;3252;52.540;13.290;2023-11-21T01:43:50;1.20;;;0.80;;
6438;SDS011;3252;52.540;13.290;2023-11-21T01:45:55;0.90;;;0.80;;
6438;SDS011;3252;52.540;13.290;2023-11-21T01:47:58;1.40;;;0.65;;
6438;SDS011;3252;52.540;13.290;2023-11-21T01:50:01;1.15;;;0.75;;
6438;SDS011;3252;52.540;13.290;2023-11-21T01:52:04;0.90;;;0.70;;
6438;SDS011;3252;52.540;13.290;2023-11-21T01:54:07;0.98;;;0.60;;
6438;SDS011;3252;52.540;13.290;2023-11-21T01:56:12;0.55;;;0.50;;
6438;SDS011;3252;52.540;13.290;2023-11-21T01:58:14;1.33;;;0.68;;
6438;SDS011;3252;52.540;13.290;2023-11-21T02:00:17;0.90;;;0.60;;
6438;SDS011;3252;52.540;13.290;2023-11-21T02:02:21;0.93;;;0.70;;
6438;SDS011;3252;52.540;13.290;2023-11-21T02:04:23;0.80;;;0.65;;
6438;SDS011;3252;52.540;13.290;2023-11-21T02:06:25;0.63;;;0.60;;
6438;SDS011;3252;52.540;13.290;2023-11-21T02:08:31;0.90;;;0.70;;
6438;SDS011;3252;52.540;13.290;2023-11-21T02:10:33;0.65;;;0.65;;
6438;SDS011;3252;52.540;13.290;2023-11-21T02:12:37;0.90;;;0.70;;
6438;SDS011;3252;52.540;13.290;2023-11-21T02:14:39;0.60;;;0.55;;
6438;SDS011;3252;52.540;13.290;2023-11-21T02:16:42;1.40;;;0.65;;
6438;SDS011;3252;52.540;13.290;2023-11-21T02:18:50;0.60;;;0.60;;
6438;SDS011;3252;52.540;13.290;2023-11-21T02:20:53;0.98;;;0.88;;
6438;SDS011;3252;52.540;13.290;2023-11-21T02:22:57;1.23;;;0.80;;
6438;SDS011;3252;52.540;13.290;2023-11-21T02:24:59;0.80;;;0.60;;
6438;SDS011;3252;52.540;13.290;2023-11-21T02:27:02;1.27;;;0.82;;
6438;SDS011;3252;52.540;13.290;2023-11-21T02:29:04;0.95;;;0.65;;
6438;SDS011;3252;52.540;13.290;2023-11-21T02:31:06;1.05;;;0.90;;
6438;SDS011;3252;52.540;13.290;2023-11-21T02:33:08;0.73;;;0.70;;
6438;SDS011;3252;52.540;13.290;2023-11-21T02:35:10;0.88;;;0.70;;
6438;SDS011;3252;52.540;13.290;2023-11-21T02:37:12;1.05;;;0.70;;
6438;SDS011;3252;52.540;13.290;2023-11-21T02:39:16;1.23;;;0.82;;
6438;SDS011;3252;52.540;13.290;2023-11-21T02:41:22;0.50;;;0.40;;
6438;SDS011;3252;52.540;13.290;2023-11-21T02:43:24;0.70;;;0.70;;
6438;SDS011;3252;52.540;13.290;2023-11-21T02:45:27;0.85;;;0.50;;
6438;SDS011;3252;52.540;13.290;2023-11-21T02:47:29;0.52;;;0.52;;
6438;SDS011;3252;52.540;13.290;2023-11-21T02:49:30;0.98;;;0.80;;
6438;SDS011;3252;52.540;13.290;2023-11-21T02:51:34;1.80;;;0.80;;
6438;SDS011;3252;52.540;13.290;2023-11-21T02:53:38;0.93;;;0.70;;
6438;SDS011;3252;52.540;13.290;2023-11-21T02:55:41;0.85;;;0.70;;
6438;SDS011;3252;52.540;13.290;2023-11-21T02:57:44;1.02;;;0.80;;
6438;SDS011;3252;52.540;13.290;2023-11-21T02:59:46;1.15;;;0.90;;
6438;SDS011;3252;52.540;13.290;2023-11-21T03:01:49;0.90;;;0.75;;
6438;SDS011;3252;52.540;13.290;2023-11-21T03:03:51;1.02;;;0.70;;
6438;SDS011;3252;52.540;13.290;2023-11-21T03:05:55;0.88;;;0.80;;
6438;SDS011;3252;52.540;13.290;2023-11-21T03:07:57;0.77;;;0.70;;
6438;SDS011;3252;52.540;13.290;2023-11-21T03:10:00;0.77;;;0.70;;
6438;SDS011;3252;52.540;13.290;2023-11-21T03:12:06;1.08;;;0.80;;
6438;SDS011;3252;52.540;13.290;2023-11-21T03:14:07;1.13;;;0.90;;
6438;SDS011;3252;52.540;13.290;2023-11-21T03:16:11;0.82;;;0.82;;
6438;SDS011;3252;52.540;13.290;2023-11-21T03:18:14;0.80;;;0.80;;
6438;SDS011;3252;52.540;13.290;2023-11-21T03:20:16;0.90;;;0.65;;
6438;SDS011;3252;52.540;13.290;2023-11-21T03:22:18;1.13;;;0.80;;
6438;SDS011;3252;52.540;13.290;2023-11-21T03:24:20;1.52;;;0.90;;
6438;SDS011;3252;52.540;13.290;2023-11-21T03:26:22;0.70;;;0.70;;
6438;SDS011;3252;52.540;13.290;2023-11-21T03:28:26;0.65;;;0.65;;
6438;SDS011;3252;52.540;13.290;2023-11-21T03:30:31;1.08;;;0.77;;
6438;SDS011;3252;52.540;13.290;2023-11-21T03:32:33;1.20;;;0.80;;
6438;SDS011;3252;52.540;13.290;2023-11-21T03:34:35;0.70;;;0.70;;
6438;SDS011;3252;52.540;13.290;2023-11-21T03:36:55;1.00;;;0.90;;
6438;SDS011;3252;52.540;13.290;2023-11-21T03:38:57;0.80;;;0.68;;
6438;SDS011;3252;52.540;13.290;2023-11-21T03:41:00;1.02;;;0.80;;
6438;SDS011;3252;52.540;13.290;2023-11-21T03:43:02;1.25;;;0.95;;
6438;SDS011;3252;52.540;13.290;2023-11-21T03:45:07;1.20;;;0.90;;
6438;SDS011;3252;52.540;13.290;2023-11-21T03:47:10;0.90;;;0.82;;
6438;SDS011;3252;52.540;13.290;2023-11-21T03:49:12;0.60;;;0.60;;
6438;SDS011;3252;52.540;13.290;2023-11-21T03:51:16;0.70;;;0.70;;
6438;SDS011;3252;52.540;13.290;2023-11-21T03:53:17;0.98;;;0.80;;
6438;SDS011;3252;52.540;13.290;2023-11-21T03:55:19;0.60;;;0.60;;
6438;SDS011;3252;52.540;13.290;2023-11-21T03:57:23;0.80;;;0.80;;
6438;SDS011;3252;52.540;13.290;2023-11-21T03:59:26;0.80;;;0.70;;
6438;SDS011;3252;52.540;13.290;2023-11-21T04:01:29;0.73;;;0.73;;
6438;SDS011;3252;52.540;13.290;2023-11-21T04:03:32;0.77;;;0.70;;
6438;SDS011;3252;52.540;13.290;2023-11-21T04:05:34;1.05;;;0.88;;
6438;SDS011;3252;52.540;13.290;2023-11-21T04:07:37;0.63;;;0.60;;
6438;SDS011;3252;52.540;13.290;2023-11-21T04:09:40;1.30;;;0.60;;
6438;SDS011;3252;52.540;13.290;2023-11-21T04:11:42;0.90;;;0.77;;
6438;SDS011;3252;52.540;13.290;2023-11-21T04:13:46;0.95;;;0.88;;
6438;SDS011;3252;52.540;13.290;2023-11-21T04:15:48;1.63;;;0.90;;
6438;SDS011;3252;52.540;13.290;2023-11-21T04:17:52;0.80;;;0.80;;
6438;SDS011;3252;52.540;13.290;2023-11-21T04:19:54;0.98;;;0.88;;
6438;SDS011;3252;52.540;13.290;2023-11-21T04:21:57;0.82;;;0.63;;
6438;SDS011;3252;52.540;13.290;2023-11-21T04:23:59;0.60;;;0.60;;
6438;SDS011;3252;52.540;13.290;2023-11-21T04:26:02;0.82;;;0.75;;
6438;SDS011;3252;52.540;13.290;2023-11-21T04:28:04;1.10;;;1.00;;
6438;SDS011;3252;52.540;13.290;2023-11-21T04:30:07;0.85;;;0.82;;
6438;SDS011;3252;52.540;13.290;2023-11-21T04:32:11;0.95;;;0.90;;
6438;SDS011;3252;52.540;13.290;2023-11-21T04:34:14;0.85;;;0.70;;
6438;SDS011;3252;52.540;13.290;2023-11-21T04:36:17;0.93;;;0.82;;
6438;SDS011;3252;52.540;13.290;2023-11-21T04:38:19;0.90;;;0.80;;
6438;SDS011;3252;52.540;13.290;2023-11-21T04:40:22;1.63;;;1.00;;
6438;SDS011;3252;52.540;13.290;2023-11-21T04:42:24;0.93;;;0.80;;
6438;SDS011;3252;52.540;13.290;2023-11-21T04:44:26;0.98;;;0.80;;
6438;SDS011;3252;52.540;13.290;2023-11-21T04:46:29;0.70;;;0.70;;
6438;SDS011;3252;52.540;13.290;2023-11-21T04:48:32;1.40;;;1.10;;
6438;SDS011;3252;52.540;13.290;2023-11-21T04:50:35;0.82;;;0.82;;
6438;SDS011;3252;52.540;13.290;2023-11-21T04:52:39;0.93;;;0.70;;
6438;SDS011;3252;52.540;13.290;2023-11-21T04:54:41;0.73;;;0.70;;
6438;SDS011;3252;52.540;13.290;2023-11-21T04:56:43;0.95;;;0.90;;
6438;SDS011;3252;52.540;13.290;2023-11-21T04:58:45;0.93;;;0.82;;
6438;SDS011;3252;52.540;13.290;2023-11-21T05:00:48;1.00;;;0.90;;
6438;SDS011;3252;52.540;13.290;2023-11-21T05:02:50;1.00;;;0.90;;
6438;SDS011;3252;52.540;13.290;2023-11-21T05:04:53;0.77;;;0.77;;
6438;SDS011;3252;52.540;13.290;2023-11-21T05:06:58;1.10;;;0.98;;
6438;SDS011;3252;52.540;13.290;2023-11-21T05:09:00;1.00;;;0.90;;
6438;SDS011;3252;52.540;13.290;2023-11-21T05:11:03;0.80;;;0.80;;
6438;SDS011;3252;52.540;13.290;2023-11-21T05:13:07;0.75;;;0.75;;
6438;SDS011;3252;52.540;13.290;2023-11-21T05:15:12;1.02;;;0.88;;
6438;SDS011;3252;52.540;13.290;2023-11-21T05:17:15;1.02;;;0.90;;
6438;SDS011;3252;52.540;13.290;2023-11-21T05:19:18;1.00;;;0.80;;
6438;SDS011;3252;52.540;13.290;2023-11-21T05:21:21;0.95;;;0.80;;
6438;SDS011;3252;52.540;13.290;2023-11-21T05:23:25;0.75;;;0.75;;
6438;SDS011;3252;52.540;13.290;2023-11-21T05:25:27;0.80;;;0.80;;
6438;SDS011;3252;52.540;13.290;2023-11-21T05:27:30;1.13;;;1.00;;
6438;SDS011;3252;52.540;13.290;2023-11-21T05:29:32;1.27;;;1.00;;
6438;SDS011;3252;52.540;13.290;2023-11-21T05:31:35;1.23;;;1.00;;
6438;SDS011;3252;52.540;13.290;2023-11-21T05:33:38;0.82;;;0.80;;
6438;SDS011;3252;52.540;13.290;2023-11-21T05:35:40;0.75;;;0.75;;
6438;SDS011;3252;52.540;13.290;2023-11-21T05:37:43;0.98;;;0.88;;
6438;SDS011;3252;52.540;13.290;2023-11-21T05:39:48;1.15;;;1.05;;
6438;SDS011;3252;52.540;13.290;2023-11-21T05:41:50;1.48;;;0.90;;
6438;SDS011;3252;52.540;13.290;2023-11-21T05:43:52;1.00;;;0.88;;
6438;SDS011;3252;52.540;13.290;2023-11-21T05:45:54;1.00;;;0.90;;
6438;SDS011;3252;52.540;13.290;2023-11-21T05:47:57;1.10;;;1.00;;
6438;SDS011;3252;52.540;13.290;2023-11-21T05:50:00;1.00;;;0.93;;
6438;SDS011;3252;52.540;13.290;2023-11-21T05:52:01;1.00;;;0.90;;
6438;SDS011;3252;52.540;13.290;2023-11-21T05:54:04;0.98;;;0.90;;
6438;SDS011;3252;52.540;13.290;2023-11-21T05:56:07;0.93;;;0.80;;
6438;SDS011;3252;52.540;13.290;2023-11-21T05:58:09;1.10;;;0.90;;
6438;SDS011;3252;52.540;13.290;2023-11-21T06:00:14;1.05;;;0.90;;
6438;SDS011;3252;52.540;13.290;2023-11-21T06:02:20;0.95;;;0.90;;
6438;SDS011;3252;52.540;13.290;2023-11-21T06:04:22;0.82;;;0.82;;
6438;SDS011;3252;52.540;13.290;2023-11-21T06:06:25;0.85;;;0.85;;
6438;SDS011;3252;52.540;13.290;2023-11-21T06:08:27;1.30;;;0.93;;
6438;SDS011;3252;52.540;13.290;2023-11-21T06:10:30;0.85;;;0.82;;
6438;SDS011;3252;52.540;13.290;2023-11-21T06:12:32;1.35;;;0.95;;
6438;SDS011;3252;52.540;13.290;2023-11-21T06:14:36;2.38;;;1.10;;
6438;SDS011;3252;52.540;13.290;2023-11-21T06:16:37;1.63;;;1.08;;
6438;SDS011;3252;52.540;13.290;2023-11-21T06:18:40;2.45;;;1.30;;
6438;SDS011;3252;52.540;13.290;2023-11-21T06:20:43;1.40;;;1.02;;
6438;SDS011;3252;52.540;13.290;2023-11-21T06:22:45;1.88;;;1.17;;
6438;SDS011;3252;52.540;13.290;2023-11-21T06:24:48;2.92;;;1.38;;
6438;SDS011;3252;52.540;13.290;2023-11-21T06:26:50;4.47;;;1.20;;
6438;SDS011;3252;52.540;13.290;2023-11-21T06:28:54;2.80;;;1.20;;
6438;SDS011;3252;52.540;13.290;2023-11-21T06:30:57;4.72;;;1.60;;
6438;SDS011;3252;52.540;13.290;2023-11-21T06:33:04;5.00;;;1.40;;
6438;SDS011;3252;52.540;13.290;2023-11-21T06:35:07;6.07;;;1.58;;
6438;SDS011;3252;52.540;13.290;2023-11-21T06:37:10;3.17;;;1.23;;
6438;SDS011;3252;52.540;13.290;2023-11-21T06:39:12;5.30;;;1.52;;
6438;SDS011;3252;52.540;13.290;2023-11-21T06:41:15;5.47;;;1.40;;
6438;SDS011;3252;52.540;13.290;2023-11-21T06:43:17;3.72;;;1.38;;
6438;SDS011;3252;52.540;13.290;2023-11-21T06:45:23;7.28;;;1.52;;
6438;SDS011;3252;52.540;13.290;2023-11-21T06:47:26;4.35;;;1.60;;
6438;SDS011;3252;52.540;13.290;2023-11-21T06:49:29;2.80;;;1.52;;
6438;SDS011;3252;52.540;13.290;2023-11-21T06:51:32;4.10;;;1.40;;
6438;SDS011;3252;52.540;13.290;2023-11-21T06:53:35;4.40;;;2.35;;
6438;SDS011;3252;52.540;13.290;2023-11-21T06:55:37;4.03;;;1.50;;
6438;SDS011;3252;52.540;13.290;2023-11-21T06:57:40;3.95;;;1.20;;
6438;SDS011;3252;52.540;13.290;2023-11-21T06:59:43;3.35;;;1.45;;
6438;SDS011;3252;52.540;13.290;2023-11-21T07:01:47;3.90;;;1.70;;
6438;SDS011;3252;52.540;13.290;2023-11-21T07:03:49;4.22;;;1.60;;
6438;SDS011;3252;52.540;13.290;2023-11-21T07:05:51;4.03;;;1.38;;
6438;SDS011;3252;52.540;13.290;2023-11-21T07:07:54;4.35;;;1.40;;
6438;SDS011;3252;52.540;13.290;2023-11-21T07:09:56;3.33;;;1.40;;
6438;SDS011;3252;52.540;13.290;2023-11-21T07:12:03;5.07;;;1.65;;
6438;SDS011;3252;52.540;13.290;2023-11-21T07:14:07;4.85;;;1.50;;
6438;SDS011;3252;52.540;13.290;2023-11-21T07:16:10;3.00;;;1.52;;
6438;SDS011;3252;52.540;13.290;2023-11-21T07:18:14;5.80;;;1.50;;
6438;SDS011;3252;52.540;13.290;2023-11-21T07:20:16;3.20;;;1.55;;
6438;SDS011;3252;52.540;13.290;2023-11-21T07:22:19;1.98;;;1.20;;
6438;SDS011;3252;52.540;13.290;2023-11-21T07:24:21;5.25;;;1.40;;
6438;SDS011;3252;52.540;13.290;2023-11-21T07:26:24;2.00;;;1.20;;
6438;SDS011;3252;52.540;13.290;2023-11-21T07:28:26;5.22;;;1.85;;
6438;SDS011;3252;52.540;13.290;2023-11-21T07:30:29;3.53;;;1.60;;
6438;SDS011;3252;52.540;13.290;2023-11-21T07:32:31;4.32;;;1.90;;
6438;SDS011;3252;52.540;13.290;2023-11-21T07:34:34;8.10;;;2.58;;
6438;SDS011;3252;52.540;13.290;2023-11-21T07:36:36;5.78;;;2.78;;
6438;SDS011;3252;52.540;13.290;2023-11-21T07:38:39;8.07;;;2.78;;
6438;SDS011;3252;52.540;13.290;2023-11-21T07:40:41;8.30;;;2.90;;
6438;SDS011;3252;52.540;13.290;2023-11-21T07:42:44;8.60;;;3.15;;
6438;SDS011;3252;52.540;13.290;2023-11-21T07:44:45;7.57;;;3.08;;
6438;SDS011;3252;52.540;13.290;2023-11-21T07:46:48;8.00;;;3.25;;
6438;SDS011;3252;52.540;13.290;2023-11-21T07:48:51;7.32;;;3.03;;
6438;SDS011;3252;52.540;13.290;2023-11-21T07:50:55;7.15;;;3.15;;
6438;SDS011;3252;52.540;13.290;2023-11-21T07:52:57;9.45;;;3.45;;
6438;SDS011;3252;52.540;13.290;2023-11-21T07:55:00;8.07;;;3.67;;
6438;SDS011;3252;52.540;13.290;2023-11-21T07:57:03;7.75;;;3.38;;
6438;SDS011;3252;52.540;13.290;2023-11-21T07:59:05;7.85;;;3.15;;
6438;SDS011;3252;52.540;13.290;2023-11-21T08:01:08;9.40;;;3.20;;
6438;SDS011;3252;52.540;13.290;2023-11-21T08:03:10;8.02;;;3.20;;
6438;SDS011;3252;52.540;13.290;2023-11-21T08:05:12;7.85;;;3.08;;
6438;SDS011;3252;52.540;13.290;2023-11-21T08:07:17;5.03;;;2.58;;
6438;SDS011;3252;52.540;13.290;2023-11-21T08:09:19;7.35;;;3.00;;
6438;SDS011;3252;52.540;13.290;2023-11-21T08:11:24;7.93;;;3.20;;
6438;SDS011;3252;52.540;13.290;2023-11-21T08:13:27;7.43;;;3.17;;
6438;SDS011;3252;52.540;13.290;2023-11-21T08:15:30;7.13;;;2.97;;
6438;SDS011;3252;52.540;13.290;2023-11-21T08:17:33;12.15;;;3.47;;
6438;SDS011;3252;52.540;13.290;2023-11-21T08:19:35;6.90;;;2.90;;
6438;SDS011;3252;52.540;13.290;2023-11-21T08:21:38;6.10;;;3.15;;
6438;SDS011;3252;52.540;13.290;2023-11-21T08:23:42;6.43;;;3.00;;
6438;SDS011;3252;52.540;13.290;2023-11-21T08:25:44;7.43;;;3.03;;
6438;SDS011;3252;52.540;13.290;2023-11-21T08:27:46;8.07;;;3.22;;
6438;SDS011;3252;52.540;13.290;2023-11-21T08:29:49;6.32;;;3.08;;
6438;SDS011;3252;52.540;13.290;2023-11-21T08:31:52;6.20;;;3.03;;
6438;SDS011;3252;52.540;13.290;2023-11-21T08:33:55;7.75;;;3.33;;
6438;SDS011;3252;52.540;13.290;2023-11-21T08:35:56;6.70;;;2.85;;
6438;SDS011;3252;52.540;13.290;2023-11-21T08:37:58;7.70;;;2.95;;
6438;SDS011;3252;52.540;13.290;2023-11-21T08:40:02;5.97;;;2.90;;
6438;SDS011;3252;52.540;13.290;2023-11-21T08:42:04;6.07;;;2.78;;
6438;SDS011;3252;52.540;13.290;2023-11-21T08:44:07;5.80;;;2.90;;
6438;SDS011;3252;52.540;13.290;2023-11-21T08:48:37;1765.93;;;975.38;;
6438;SDS011;3252;52.540;13.290;2023-11-21T08:50:39;597.08;;;436.88;;
6438;SDS011;3252;52.540;13.290;2023-11-21T08:52:41;519.30;;;340.65;;
6438;SDS011;3252;52.540;13.290;2023-11-21T08:54:43;519.40;;;327.48;;
6438;SDS011;3252;52.540;13.290;2023-11-21T08:56:48;1999.90;;;999.90;;
6438;SDS011;3252;52.540;13.290;2023-11-21T08:58:52;1999.90;;;999.90;;
6438;SDS011;3252;52.540;13.290;2023-11-21T09:00:54;1270.07;;;838.90;;
6438;SDS011;3252;52.540;13.290;2023-11-21T09:02:57;1167.60;;;786.17;;
6438;SDS011;3252;52.540;13.290;2023-11-21T09:05:00;1105.07;;;735.33;;
6438;SDS011;3252;52.540;13.290;2023-11-21T09:07:05;1084.55;;;712.33;;
6438;SDS011;3252;52.540;13.290;2023-11-21T09:09:08;896.45;;;589.33;;
6438;SDS011;3252;52.540;13.290;2023-11-21T09:11:11;839.90;;;537.08;;
6438;SDS011;3252;52.540;13.290;2023-11-21T09:13:19;802.70;;;501.23;;
6438;SDS011;3252;52.540;13.290;2023-11-21T09:15:22;648.10;;;380.27;;
6438;SDS011;3252;52.540;13.290;2023-11-21T09:17:24;575.10;;;307.17;;
6438;SDS011;3252;52.540;13.290;2023-11-21T09:19:26;524.23;;;261.23;;
6438;SDS011;3252;52.540;13.290;2023-11-21T09:21:28;427.73;;;184.82;;
6438;SDS011;3252;52.540;13.290;2023-11-21T09:23:31;369.73;;;142.07;;
6438;SDS011;3252;52.540;13.290;2023-11-21T09:25:33;246.52;;;89.95;;
6438;SDS011;3252;52.540;13.290;2023-11-21T09:27:35;158.67;;;54.03;;
6438;SDS011;3252;52.540;13.290;2023-11-21T09:29:38;118.33;;;39.27;;
6438;SDS011;3252;52.540;13.290;2023-11-21T09:31:40;69.68;;;22.98;;
6438;SDS011;3252;52.540;13.290;2023-11-21T09:33:44;45.90;;;16.30;;
6438;SDS011;3252;52.540;13.290;2023-11-21T09:35:46;27.47;;;9.63;;
6438;SDS011;3252;52.540;13.290;2023-11-21T09:37:49;15.07;;;6.37;;
6438;SDS011;3252;52.540;13.290;2023-11-21T09:39:52;12.43;;;5.43;;
6438;SDS011;3252;52.540;13.290;2023-11-21T09:41:56;9.50;;;4.87;;
6438;SDS011;3252;52.540;13.290;2023-11-21T09:44:03;6.83;;;3.70;;
6438;SDS011;3252;52.540;13.290;2023-11-21T09:46:12;6.27;;;3.60;;
6438;SDS011;3252;52.540;13.290;2023-11-21T09:48:20;5.63;;;3.60;;
6438;SDS011;3252;52.540;13.290;2023-11-21T09:50:23;6.97;;;3.23;;
6438;SDS011;3252;52.540;13.290;2023-11-21T09:52:27;5.53;;;3.10;;
6438;SDS011;3252;52.540;13.290;2023-11-21T09:54:30;4.97;;;3.00;;
6438;SDS011;3252;52.540;13.290;2023-11-21T09:56:32;6.33;;;3.37;;
6438;SDS011;3252;52.540;13.290;2023-11-21T09:58:34;5.87;;;3.13;;
6438;SDS011;3252;52.540;13.290;2023-11-21T10:00:36;4.47;;;3.10;;
6438;SDS011;3252;52.540;13.290;2023-11-21T10:02:42;5.67;;;3.50;;
6438;SDS011;3252;52.540;13.290;2023-11-21T10:04:45;1999.90;;;999.90;;
6438;SDS011;3252;52.540;13.290;2023-11-21T10:06:48;999.33;;;720.93;;
6438;SDS011;3252;52.540;13.290;2023-11-21T10:08:52;1015.20;;;714.90;;
6438;SDS011;3252;52.540;13.290;2023-11-21T10:10:56;880.90;;;624.60;;
6438;SDS011;3252;52.540;13.290;2023-11-21T10:13:01;811.03;;;554.27;;
6438;SDS011;3252;52.540;13.290;2023-11-21T10:15:09;735.67;;;477.17;;
6438;SDS011;3252;52.540;13.290;2023-11-21T10:17:16;624.50;;;372.23;;
6438;SDS011;3252;52.540;13.290;2023-11-21T10:19:21;539.70;;;298.67;;
6438;SDS011;3252;52.540;13.290;2023-11-21T10:21:24;429.65;;;197.02;;
6438;SDS011;3252;52.540;13.290;2023-11-21T10:23:28;313.63;;;128.53;;
6438;SDS011;3252;52.540;13.290;2023-11-21T10:25:30;203.97;;;78.00;;
6438;SDS011;3252;52.540;13.290;2023-11-21T10:27:32;147.43;;;52.67;;
6438;SDS011;3252;52.540;13.290;2023-11-21T10:29:35;79.57;;;29.17;;
6438;SDS011;3252;52.540;13.290;2023-11-21T10:31:37;49.87;;;16.50;;
6438;SDS011;3252;52.540;13.290;2023-11-21T10:33:38;24.73;;;9.93;;
6438;SDS011;3252;52.540;13.290;2023-11-21T10:35:45;12.30;;;6.03;;
6438;SDS011;3252;52.540;13.290;2023-11-21T10:37:54;10.73;;;5.33;;
6438;SDS011;3252;52.540;13.290;2023-11-21T10:40:02;6.50;;;4.17;;
6438;SDS011;3252;52.540;13.290;2023-11-21T10:42:07;6.30;;;3.87;;
6438;SDS011;3252;52.540;13.290;2023-11-21T10:44:10;7.30;;;3.67;;
6438;SDS011;3252;52.540;13.290;2023-11-21T10:46:14;5.37;;;3.30;;
6438;SDS011;3252;52.540;13.290;2023-11-21T10:48:17;7.93;;;3.60;;
6438;SDS011;3252;52.540;13.290;2023-11-21T10:50:19;5.57;;;3.37;;
6438;SDS011;3252;52.540;13.290;2023-11-21T10:52:23;5.27;;;3.17;;
6438;SDS011;3252;52.540;13.290;2023-11-21T10:54:28;5.10;;;3.33;;
6438;SDS011;3252;52.540;13.290;2023-11-21T10:56:30;4.30;;;3.30;;
6438;SDS011;3252;52.540;13.290;2023-11-21T10:58:35;6.03;;;2.80;;
6438;SDS011;3252;52.540;13.290;2023-11-21T11:00:40;4.63;;;3.00;;
6438;SDS011;3252;52.540;13.290;2023-11-21T11:02:43;6.80;;;3.03;;
6438;SDS011;3252;52.540;13.290;2023-11-21T11:04:48;1999.90;;;999.90;;
6438;SDS011;3252;52.540;13.290;2023-11-21T11:06:51;1025.30;;;749.43;;
6438;SDS011;3252;52.540;13.290;2023-11-21T11:08:58;1999.90;;;999.90;;
6438;SDS011;3252;52.540;13.290;2023-11-21T11:11:04;1999.90;;;999.90;;
6438;SDS011;3252;52.540;13.290;2023-11-21T11:13:06;1800.40;;;999.90;;
6438;SDS011;3252;52.540;13.290;2023-11-21T11:15:09;1999.90;;;999.90;;
6438;SDS011;3252;52.540;13.290;2023-11-21T11:17:11;1999.90;;;999.90;;
6438;SDS011;3252;52.540;13.290;2023-11-21T11:19:15;1999.90;;;999.90;;
6438;SDS011;3252;52.540;13.290;2023-11-21T11:21:22;1999.90;;;999.90;;
6438;SDS011;3252;52.540;13.290;2023-11-21T11:23:36;1999.90;;;999.90;;
6438;SDS011;3252;52.540;13.290;2023-11-21T11:25:52;1874.83;;;989.23;;
6438;SDS011;3252;52.540;13.290;2023-11-21T11:28:06;1782.93;;;951.17;;
6438;SDS011;3252;52.540;13.290;2023-11-21T11:30:16;1634.63;;;900.40;;
6438;SDS011;3252;52.540;13.290;2023-11-21T11:32:27;1313.40;;;776.17;;
6438;SDS011;3252;52.540;13.290;2023-11-21T11:34:39;1384.57;;;821.95;;
6438;SDS011;3252;52.540;13.290;2023-11-21T11:36:47;1728.30;;;948.70;;
6438;SDS011;3252;52.540;13.290;2023-11-21T11:38:53;1625.53;;;905.93;;
6438;SDS011;3252;52.540;13.290;2023-11-21T11:40:57;1549.93;;;869.17;;
6438;SDS011;3252;52.540;13.290;2023-11-21T11:43:05;1405.20;;;796.97;;
6438;SDS011;3252;52.540;13.290;2023-11-21T11:45:17;1329.00;;;752.07;;
6438;SDS011;3252;52.540;13.290;2023-11-21T11:47:24;1177.60;;;676.60;;
6438;SDS011;3252;52.540;13.290;2023-11-21T11:49:28;1058.20;;;598.50;;
6438;SDS011;3252;52.540;13.290;2023-11-21T11:51:32;932.13;;;508.83;;
6438;SDS011;3252;52.540;13.290;2023-11-21T11:53:36;815.10;;;434.13;;
6438;SDS011;3252;52.540;13.290;2023-11-21T11:55:39;660.77;;;323.37;;
6438;SDS011;3252;52.540;13.290;2023-11-21T11:57:44;1999.90;;;999.90;;
6438;SDS011;3252;52.540;13.290;2023-11-21T12:02:11;1999.90;;;999.90;;
6438;SDS011;3252;52.540;13.290;2023-11-21T12:04:25;1999.90;;;999.90;;
6438;SDS011;3252;52.540;13.290;2023-11-21T12:06:34;1908.83;;;999.67;;
6438;SDS011;3252;52.540;13.290;2023-11-21T12:08:36;1816.50;;;967.27;;
6438;SDS011;3252;52.540;13.290;2023-11-21T12:10:39;1686.53;;;921.73;;
6438;SDS011;3252;52.540;13.290;2023-11-21T12:12:43;1617.83;;;891.63;;
6438;SDS011;3252;52.540;13.290;2023-11-21T12:14:46;1538.03;;;848.73;;
6438;SDS011;3252;52.540;13.290;2023-11-21T12:16:48;1364.33;;;770.60;;
6438;SDS011;3252;52.540;13.290;2023-11-21T12:18:50;1292.60;;;727.93;;
6438;SDS011;3252;52.540;13.290;2023-11-21T12:20:52;1125.97;;;635.77;;
6438;SDS011;3252;52.540;13.290;2023-11-21T12:22:55;1004.07;;;562.50;;
6438;SDS011;3252;52.540;13.290;2023-11-21T12:24:59;924.43;;;496.93;;
6438;SDS011;3252;52.540;13.290;2023-11-21T12:27:01;777.27;;;391.33;;
6438;SDS011;3252;52.540;13.290;2023-11-21T12:29:05;674.43;;;321.60;;